AVA9326 SKBO-SKRG
Flight info
| Callsign | AVA9326 |
|---|---|
| Flight time | 0h 25m |
| Altitude | 24000 |
| Route | TOBKI1S VASIL W36 NIRSO NIRSO3C |
| Aircraft | A320/M-SDE3FGHIRWY/LB1 |
Departure
| Time | 2026-05-01 11:54 |
|---|---|
| Airport | El Dorado International Airport (SKBO) |
Arrival
| Time | 2026-05-01 12:19 |
|---|---|
| Airport | Jose Maria Córdova International Airport (SKRG) |
| Time | Latitude | Longitude | Altitude | Speed | Heading |
|---|---|---|---|---|---|
| 2026-05-01 11:33 | 4.69839 | -74.14400 | 8373 ft | 0 kts | 229° |
| 2026-05-01 11:41 | 4.69849 | -74.14389 | 8372 ft | 4 kts | 226° |
| 2026-05-01 11:41 | 4.69863 | -74.14373 | 8373 ft | 4 kts | 241° |
| 2026-05-01 11:42 | 4.69868 | -74.14349 | 8373 ft | 4 kts | 289° |
| 2026-05-01 11:42 | 4.69855 | -74.14327 | 8373 ft | 3 kts | 307° |
| 2026-05-01 11:42 | 4.69865 | -74.14340 | 8373 ft | 4 kts | 307° |
| 2026-05-01 11:42 | 4.69882 | -74.14362 | 8372 ft | 4 kts | 307° |
| 2026-05-01 11:43 | 4.69898 | -74.14384 | 8371 ft | 4 kts | 307° |
| 2026-05-01 11:43 | 4.69915 | -74.14405 | 8373 ft | 4 kts | 307° |
| 2026-05-01 11:43 | 4.69931 | -74.14427 | 8373 ft | 4 kts | 307° |
| 2026-05-01 11:44 | 4.69963 | -74.14469 | 8373 ft | 2 kts | 307° |
| 2026-05-01 11:44 | 4.69964 | -74.14471 | 8373 ft | 0 kts | 307° |
| 2026-05-01 11:46 | 4.69968 | -74.14476 | 8373 ft | 3 kts | 307° |
| 2026-05-01 11:46 | 4.69981 | -74.14492 | 8371 ft | 2 kts | 307° |
| 2026-05-01 11:47 | 4.70000 | -74.14518 | 8371 ft | 10 kts | 307° |
| 2026-05-01 11:47 | 4.70043 | -74.14575 | 8373 ft | 9 kts | 302° |
| 2026-05-01 11:47 | 4.70011 | -74.14625 | 8373 ft | 9 kts | 217° |
| 2026-05-01 11:47 | 4.69942 | -74.14677 | 8373 ft | 14 kts | 217° |
| 2026-05-01 11:48 | 4.69869 | -74.14731 | 8371 ft | 13 kts | 217° |
| 2026-05-01 11:48 | 4.69788 | -74.14792 | 8373 ft | 15 kts | 217° |
| 2026-05-01 11:48 | 4.69776 | -74.14869 | 8371 ft | 12 kts | 306° |
| 2026-05-01 11:48 | 4.69840 | -74.14954 | 8373 ft | 21 kts | 307° |
| 2026-05-01 11:49 | 4.69949 | -74.15099 | 8371 ft | 28 kts | 307° |
| 2026-05-01 11:49 | 4.70068 | -74.15256 | 8370 ft | 28 kts | 307° |
| 2026-05-01 11:49 | 4.70187 | -74.15412 | 8373 ft | 28 kts | 307° |
| 2026-05-01 11:49 | 4.70303 | -74.15567 | 8373 ft | 28 kts | 307° |
| 2026-05-01 11:50 | 4.70422 | -74.15724 | 8373 ft | 28 kts | 307° |
| 2026-05-01 11:50 | 4.70540 | -74.15881 | 8373 ft | 28 kts | 307° |
| 2026-05-01 11:50 | 4.70658 | -74.16036 | 8373 ft | 28 kts | 307° |
| 2026-05-01 11:50 | 4.70776 | -74.16190 | 8372 ft | 28 kts | 307° |
| 2026-05-01 11:51 | 4.70893 | -74.16345 | 8372 ft | 28 kts | 307° |
| 2026-05-01 11:51 | 4.71011 | -74.16501 | 8373 ft | 28 kts | 306° |
| 2026-05-01 11:51 | 4.71127 | -74.16654 | 8373 ft | 28 kts | 307° |
| 2026-05-01 11:51 | 4.71206 | -74.16765 | 8372 ft | 12 kts | 290° |
| 2026-05-01 11:52 | 4.71165 | -74.16821 | 8371 ft | 10 kts | 215° |
| 2026-05-01 11:52 | 4.71112 | -74.16861 | 8373 ft | 10 kts | 217° |
| 2026-05-01 11:52 | 4.71057 | -74.16887 | 8373 ft | 7 kts | 181° |
| 2026-05-01 11:52 | 4.71014 | -74.16861 | 8373 ft | 10 kts | 128° |
| 2026-05-01 11:53 | 4.70879 | -74.16681 | 8373 ft | 66 kts | 127° |
| 2026-05-01 11:53 | 4.70467 | -74.16138 | 8374 ft | 127 kts | 127° |
| 2026-05-01 11:53 | 4.69832 | -74.15299 | 8374 ft | 177 kts | 127° |
| 2026-05-01 11:53 | 4.69036 | -74.14258 | 8855 ft | 190 kts | 127° |
| 2026-05-01 11:54 | 4.68104 | -74.13314 | 9601 ft | 194 kts | 157° |
| 2026-05-01 11:54 | 4.66783 | -74.13203 | 10189 ft | 202 kts | 200° |
| 2026-05-01 11:54 | 4.65644 | -74.14109 | 10368 ft | 223 kts | 233° |
| 2026-05-01 11:54 | 4.64743 | -74.15464 | 10520 ft | 246 kts | 238° |
| 2026-05-01 11:55 | 4.63867 | -74.16959 | 11052 ft | 251 kts | 239° |
| 2026-05-01 11:55 | 4.62995 | -74.18489 | 11634 ft | 255 kts | 238° |
| 2026-05-01 11:55 | 4.62076 | -74.20023 | 12231 ft | 257 kts | 239° |
| 2026-05-01 11:55 | 4.61430 | -74.21705 | 12785 ft | 264 kts | 260° |
| 2026-05-01 11:56 | 4.61106 | -74.23594 | 12976 ft | 286 kts | 258° |
| 2026-05-01 11:56 | 4.60712 | -74.25638 | 13116 ft | 310 kts | 257° |
| 2026-05-01 11:56 | 4.60313 | -74.27843 | 13233 ft | 333 kts | 261° |
| 2026-05-01 11:56 | 4.60055 | -74.30238 | 13356 ft | 355 kts | 264° |
| 2026-05-01 11:57 | 4.59887 | -74.32747 | 13778 ft | 365 kts | 265° |
| 2026-05-01 11:57 | 4.59767 | -74.35287 | 14255 ft | 371 kts | 266° |
| 2026-05-01 11:57 | 4.59666 | -74.37885 | 14737 ft | 375 kts | 266° |
| 2026-05-01 11:57 | 4.59643 | -74.40509 | 15241 ft | 379 kts | 276° |
| 2026-05-01 11:58 | 4.60184 | -74.43114 | 15734 ft | 383 kts | 284° |
| 2026-05-01 11:58 | 4.60890 | -74.45719 | 16259 ft | 387 kts | 285° |
| 2026-05-01 11:58 | 4.62449 | -74.50907 | 17225 ft | 394 kts | 286° |
| 2026-05-01 11:59 | 4.63249 | -74.53547 | 17758 ft | 398 kts | 286° |
| 2026-05-01 11:59 | 4.64052 | -74.56232 | 18278 ft | 401 kts | 287° |
| 2026-05-01 11:59 | 4.65140 | -74.58817 | 18725 ft | 405 kts | 300° |
| 2026-05-01 12:00 | 4.68955 | -74.62950 | 19633 ft | 408 kts | 328° |
| 2026-05-01 12:00 | 4.71481 | -74.64240 | 20088 ft | 408 kts | 342° |
| 2026-05-01 12:00 | 4.76986 | -74.65557 | 21041 ft | 411 kts | 349° |
| 2026-05-01 12:01 | 4.79793 | -74.66163 | 21514 ft | 414 kts | 349° |
| 2026-05-01 12:01 | 4.82598 | -74.66886 | 21989 ft | 417 kts | 342° |
| 2026-05-01 12:01 | 4.85272 | -74.68081 | 22484 ft | 421 kts | 331° |
| 2026-05-01 12:01 | 4.87704 | -74.69745 | 22934 ft | 425 kts | 322° |
| 2026-05-01 12:02 | 4.90033 | -74.71589 | 23382 ft | 428 kts | 322° |
| 2026-05-01 12:02 | 4.92315 | -74.73450 | 23744 ft | 430 kts | 317° |
| 2026-05-01 12:02 | 4.94328 | -74.75678 | 23880 ft | 431 kts | 306° |
| 2026-05-01 12:02 | 4.95850 | -74.78216 | 23916 ft | 418 kts | 295° |
| 2026-05-01 12:03 | 4.97105 | -74.80818 | 23934 ft | 412 kts | 295° |
| 2026-05-01 12:03 | 4.98355 | -74.83397 | 23931 ft | 410 kts | 295° |
| 2026-05-01 12:03 | 4.99605 | -74.85969 | 23926 ft | 410 kts | 296° |
| 2026-05-01 12:03 | 5.00855 | -74.88538 | 23923 ft | 410 kts | 296° |
| 2026-05-01 12:04 | 5.02111 | -74.91115 | 23922 ft | 410 kts | 296° |
| 2026-05-01 12:04 | 5.03362 | -74.93683 | 23919 ft | 410 kts | 296° |
| 2026-05-01 12:04 | 5.04611 | -74.96250 | 23918 ft | 410 kts | 296° |
| 2026-05-01 12:04 | 5.05862 | -74.98818 | 23919 ft | 410 kts | 296° |
| 2026-05-01 12:05 | 5.07117 | -75.01392 | 23975 ft | 410 kts | 296° |
| 2026-05-01 12:05 | 5.09605 | -75.06493 | 23986 ft | 409 kts | 296° |
| 2026-05-01 12:05 | 5.10853 | -75.09056 | 24018 ft | 409 kts | 296° |
| 2026-05-01 12:06 | 5.12104 | -75.11629 | 24020 ft | 409 kts | 295° |
| 2026-05-01 12:06 | 5.13349 | -75.14191 | 24041 ft | 409 kts | 295° |
| 2026-05-01 12:06 | 5.14598 | -75.16762 | 24062 ft | 409 kts | 296° |
| 2026-05-01 12:06 | 5.16059 | -75.19212 | 24070 ft | 409 kts | 307° |
| 2026-05-01 12:07 | 5.17868 | -75.21367 | 24105 ft | 408 kts | 312° |
| 2026-05-01 12:07 | 5.19758 | -75.23494 | 24111 ft | 408 kts | 312° |
| 2026-05-01 12:07 | 5.21638 | -75.25614 | 23969 ft | 402 kts | 312° |
| 2026-05-01 12:07 | 5.23480 | -75.27694 | 23682 ft | 396 kts | 312° |
| 2026-05-01 12:08 | 5.25307 | -75.29762 | 23140 ft | 395 kts | 312° |
| 2026-05-01 12:08 | 5.27122 | -75.31820 | 22633 ft | 393 kts | 312° |
| 2026-05-01 12:08 | 5.28932 | -75.33876 | 22129 ft | 392 kts | 312° |
| 2026-05-01 12:08 | 5.30742 | -75.35929 | 21616 ft | 391 kts | 312° |
| 2026-05-01 12:09 | 5.32700 | -75.37818 | 21129 ft | 388 kts | 324° |
| 2026-05-01 12:09 | 5.34986 | -75.39163 | 20640 ft | 385 kts | 339° |
| 2026-05-01 12:09 | 5.37534 | -75.39929 | 20154 ft | 381 kts | 353° |
| 2026-05-01 12:09 | 5.40165 | -75.40149 | 19684 ft | 378 kts | 359° |
| 2026-05-01 12:10 | 5.42789 | -75.40286 | 19236 ft | 377 kts | 359° |
| 2026-05-01 12:10 | 5.48037 | -75.40568 | 18299 ft | 377 kts | 359° |
| 2026-05-01 12:10 | 5.50682 | -75.40713 | 17569 ft | 383 kts | 359° |
| 2026-05-01 12:11 | 5.55899 | -75.41007 | 16925 ft | 371 kts | 359° |
| 2026-05-01 12:11 | 5.58475 | -75.41151 | 16486 ft | 369 kts | 359° |
| 2026-05-01 12:11 | 5.60999 | -75.41290 | 16048 ft | 366 kts | 359° |
| 2026-05-01 12:12 | 5.63544 | -75.41431 | 15627 ft | 365 kts | 359° |
| 2026-05-01 12:12 | 5.66076 | -75.41574 | 15199 ft | 362 kts | 359° |
| 2026-05-01 12:12 | 5.68594 | -75.41718 | 14815 ft | 361 kts | 359° |
| 2026-05-01 12:12 | 5.71095 | -75.41860 | 14437 ft | 358 kts | 359° |
| 2026-05-01 12:13 | 5.73557 | -75.42000 | 14226 ft | 349 kts | 359° |
| 2026-05-01 12:13 | 5.75156 | -75.42088 | 14099 ft | 344 kts | 359° |
| 2026-05-01 12:13 | 5.77523 | -75.42219 | 13960 ft | 336 kts | 359° |
| 2026-05-01 12:13 | 5.80562 | -75.42306 | 13769 ft | 323 kts | 2° |
| 2026-05-01 12:14 | 5.82071 | -75.42302 | 13682 ft | 317 kts | 4° |
| 2026-05-01 12:14 | 5.84235 | -75.42264 | 13472 ft | 313 kts | 3° |
| 2026-05-01 12:14 | 5.86415 | -75.42243 | 13078 ft | 314 kts | 3° |
| 2026-05-01 12:14 | 5.88607 | -75.42218 | 12674 ft | 315 kts | 2° |
| 2026-05-01 12:15 | 5.90813 | -75.42201 | 12171 ft | 319 kts | 2° |
| 2026-05-01 12:15 | 5.93026 | -75.42190 | 11458 ft | 315 kts | 2° |
| 2026-05-01 12:15 | 5.95189 | -75.42193 | 10807 ft | 303 kts | 2° |
| 2026-05-01 12:15 | 5.97260 | -75.42201 | 10214 ft | 293 kts | 2° |
| 2026-05-01 12:16 | 5.99255 | -75.42196 | 9888 ft | 282 kts | 2° |
| 2026-05-01 12:16 | 6.01170 | -75.42201 | 9549 ft | 267 kts | 2° |
| 2026-05-01 12:16 | 6.02974 | -75.42211 | 9285 ft | 252 kts | 1° |
| 2026-05-01 12:16 | 6.04690 | -75.42234 | 8991 ft | 241 kts | 2° |
| 2026-05-01 12:17 | 6.06336 | -75.42235 | 8734 ft | 233 kts | 2° |
| 2026-05-01 12:17 | 6.07889 | -75.42225 | 8570 ft | 218 kts | 2° |
| 2026-05-01 12:17 | 6.09359 | -75.42236 | 8307 ft | 203 kts | 1° |
| 2026-05-01 12:17 | 6.10714 | -75.42282 | 8010 ft | 189 kts | 359° |
| 2026-05-01 12:18 | 6.11992 | -75.42289 | 7655 ft | 176 kts | 1° |
| 2026-05-01 12:18 | 6.13177 | -75.42291 | 7384 ft | 167 kts | 0° |
| 2026-05-01 12:18 | 6.14308 | -75.42298 | 7141 ft | 159 kts | 360° |
| 2026-05-01 12:18 | 6.15398 | -75.42307 | 6982 ft | 148 kts | 359° |
| 2026-05-01 12:19 | 6.16304 | -75.42312 | 6986 ft | 106 kts | 360° |
| 2026-05-01 12:19 | 6.16849 | -75.42315 | 7014 ft | 40 kts | 359° |
| 2026-05-01 12:19 | 6.17043 | -75.42372 | 7022 ft | 22 kts | 333° |
| 2026-05-01 12:19 | 6.17149 | -75.42434 | 7020 ft | 18 kts | 330° |
| 2026-05-01 12:20 | 6.17192 | -75.42502 | 7017 ft | 11 kts | 265° |
| 2026-05-01 12:20 | 6.17190 | -75.42583 | 7017 ft | 12 kts | 269° |
| 2026-05-01 12:20 | 6.17131 | -75.42615 | 7017 ft | 11 kts | 176° |
| 2026-05-01 12:20 | 6.17067 | -75.42625 | 7019 ft | 8 kts | 212° |
| 2026-05-01 12:21 | 6.17024 | -75.42659 | 7017 ft | 10 kts | 219° |
| 2026-05-01 12:21 | 6.16977 | -75.42700 | 7016 ft | 9 kts | 225° |
| 2026-05-01 12:21 | 6.16953 | -75.42744 | 7016 ft | 6 kts | 284° |
| 2026-05-01 12:21 | 6.16977 | -75.42760 | 7018 ft | 2 kts | 332° |
| 2026-05-01 12:22 | 6.16986 | -75.42765 | 7016 ft | 2 kts | 330° |
| 2026-05-01 12:22 | 6.16989 | -75.42767 | 7016 ft | 0 kts | 330° |